createdAt,value
2024-03-11T00:00:21.051Z,45.38
2024-03-11T00:02:50.834Z,47.80
2024-03-11T00:05:18.361Z,48.33
2024-03-11T00:07:47.834Z,45.33
2024-03-11T00:10:15.510Z,51.33
2024-03-11T00:12:50.686Z,47.45
2024-03-11T00:15:22.643Z,38.67
2024-03-11T00:17:51.002Z,51.00
2024-03-11T00:20:19.809Z,48.30
2024-03-11T00:22:47.901Z,48.38
2024-03-11T00:25:15.287Z,44.03
2024-03-11T00:27:42.892Z,39.05
2024-03-11T00:30:11.476Z,45.83
2024-03-11T00:32:47.803Z,51.55
2024-03-11T00:35:16.775Z,50.33
2024-03-11T00:37:45.339Z,46.00
2024-03-11T00:40:13.032Z,47.85
2024-03-11T00:42:40.513Z,36.53
2024-03-11T00:45:11.747Z,42.72
2024-03-11T00:47:43.839Z,44.60
2024-03-11T00:50:14.972Z,45.78
2024-03-11T00:52:46.161Z,48.70
2024-03-11T00:55:13.561Z,48.95
2024-03-11T00:57:42.925Z,47.85
2024-03-11T01:00:13.474Z,43.90
2024-03-11T01:02:42.153Z,50.17
2024-03-11T01:05:10.510Z,52.72
2024-03-11T01:07:45.345Z,47.03
2024-03-11T01:10:18.395Z,47.28
2024-03-11T01:12:46.370Z,58.28
2024-03-11T01:15:14.057Z,52.70
2024-03-11T01:17:42.464Z,61.28
2024-03-11T01:20:12.639Z,60.30
2024-03-11T01:22:44.234Z,67.63
2024-03-11T01:25:12.064Z,54.67
2024-03-11T01:27:41.290Z,59.05
2024-03-11T01:30:09.381Z,57.65
2024-03-11T01:32:41.152Z,65.18
2024-03-11T01:35:12.825Z,57.20
2024-03-11T01:37:43.040Z,65.20
2024-03-11T01:40:12.275Z,74.60
2024-03-11T01:42:44.280Z,72.53
2024-03-11T01:45:15.498Z,65.25
2024-03-11T01:47:44.599Z,72.47
2024-03-11T01:50:15.052Z,71.28
2024-03-11T01:52:46.338Z,67.28
2024-03-11T01:55:14.733Z,56.65
2024-03-11T01:57:43.172Z,62.00
2024-03-11T02:00:11.099Z,57.97
2024-03-11T02:02:41.720Z,67.20
2024-03-11T02:05:16.077Z,56.15
2024-03-11T02:07:45.609Z,58.13
2024-03-11T02:10:16.368Z,60.30
2024-03-11T02:12:46.953Z,55.75
2024-03-11T02:15:16.081Z,69.72
2024-03-11T02:17:46.278Z,68.35
2024-03-11T02:20:19.825Z,66.22
2024-03-11T02:22:49.885Z,56.00
2024-03-11T02:25:28.701Z,68.60
2024-03-11T02:27:58.973Z,67.30
2024-03-11T02:30:27.182Z,72.38
2024-03-11T02:32:55.528Z,77.93
2024-03-11T02:35:23.830Z,80.90
2024-03-11T02:37:51.149Z,77.53
2024-03-11T02:40:19.910Z,76.10
2024-03-11T02:42:47.687Z,69.57
2024-03-11T02:45:16.823Z,76.72
2024-03-11T02:47:45.053Z,72.35
2024-03-11T02:50:13.310Z,66.25
2024-03-11T02:52:40.782Z,88.97
2024-03-11T02:55:15.045Z,74.22
2024-03-11T02:57:48.938Z,76.43
2024-03-11T03:00:20.356Z,75.15
2024-03-11T03:02:51.445Z,72.68
2024-03-11T03:05:19.485Z,73.13
2024-03-11T03:07:47.921Z,65.90
2024-03-11T03:10:15.369Z,88.97
2024-03-11T03:12:42.604Z,94.07
2024-03-11T03:15:10.304Z,83.53
2024-03-11T03:17:39.815Z,86.13
2024-03-11T03:20:11.652Z,70.20
2024-03-11T03:22:39.772Z,70.63
2024-03-11T03:25:07.458Z,63.78
2024-03-11T03:27:34.827Z,87.57
2024-03-11T03:30:02.334Z,79.80
2024-03-11T03:32:29.812Z,80.35
2024-03-11T03:34:57.229Z,78.18
2024-03-11T03:37:24.941Z,73.68
2024-03-11T03:39:52.215Z,82.25
2024-03-11T03:42:19.962Z,62.55
2024-03-11T03:44:47.373Z,80.45
2024-03-11T03:47:15.540Z,77.20
2024-03-11T03:49:42.834Z,83.10
2024-03-11T03:52:10.082Z,83.43
2024-03-11T03:54:37.489Z,74.70
2024-03-11T03:57:04.807Z,65.28
2024-03-11T03:59:34.455Z,79.95
2024-03-11T04:02:01.767Z,84.47
2024-03-11T04:04:29.262Z,78.07
2024-03-11T04:06:56.483Z,92.90
2024-03-11T04:09:23.781Z,90.85
2024-03-11T04:11:51.191Z,83.72
2024-03-11T04:14:18.950Z,76.90
2024-03-11T04:16:46.210Z,83.63
2024-03-11T04:19:13.841Z,76.70
2024-03-11T04:21:41.935Z,79.15
2024-03-11T04:24:12.832Z,70.68
2024-03-11T04:26:40.302Z,71.63
2024-03-11T04:29:07.599Z,70.75
2024-03-11T04:31:34.891Z,80.28
2024-03-11T04:34:02.136Z,76.88
2024-03-11T04:36:30.773Z,66.28
2024-03-11T04:38:58.017Z,72.03
2024-03-11T04:41:25.264Z,79.75
2024-03-11T04:43:52.523Z,79.00
2024-03-11T04:46:19.843Z,72.93
2024-03-11T04:48:47.267Z,80.57
2024-03-11T04:51:14.664Z,69.70
2024-03-11T04:53:42.039Z,73.00
2024-03-11T04:56:09.403Z,72.78
2024-03-11T04:58:38.960Z,78.65
2024-03-11T05:01:06.529Z,69.97
2024-03-11T05:03:33.876Z,82.45
2024-03-11T05:06:02.078Z,87.85
2024-03-11T05:08:29.510Z,68.90
2024-03-11T05:10:56.821Z,78.93
2024-03-11T05:13:24.074Z,80.43
2024-03-11T05:15:51.479Z,75.30
2024-03-11T05:18:20.380Z,99.60
2024-03-11T05:20:47.991Z,88.03
2024-03-11T05:23:15.665Z,76.07
2024-03-11T05:25:43.066Z,91.18
2024-03-11T05:28:10.331Z,80.30
2024-03-11T05:30:37.645Z,94.43
2024-03-11T05:33:05.343Z,77.25
2024-03-11T05:35:32.777Z,78.82
2024-03-11T05:38:01.603Z,83.38
2024-03-11T05:40:29.123Z,79.10
2024-03-11T05:42:56.705Z,81.32
2024-03-11T05:45:24.286Z,85.95
2024-03-11T05:47:51.891Z,93.60
2024-03-11T05:50:22.148Z,83.55
2024-03-11T05:52:50.544Z,82.25
2024-03-11T05:55:20.044Z,85.13
2024-03-11T05:57:49.855Z,84.60
2024-03-11T06:00:18.422Z,85.70
2024-03-11T06:02:48.305Z,98.15
2024-03-11T06:05:18.008Z,74.28
2024-03-11T06:07:45.426Z,79.45
2024-03-11T06:10:12.753Z,75.93
2024-03-11T06:12:40.604Z,86.75
2024-03-11T06:15:09.050Z,76.43
2024-03-11T06:17:36.497Z,87.20
2024-03-11T06:20:10.844Z,78.82
2024-03-11T06:25:07.997Z,86.97
2024-03-11T06:27:35.383Z,83.70
2024-03-11T06:30:02.978Z,99.55
2024-03-11T06:32:33.449Z,97.85
2024-03-11T06:35:02.072Z,100.43
2024-03-11T06:37:29.563Z,106.15
2024-03-11T06:39:56.864Z,95.18
2024-03-11T06:42:24.184Z,101.07
2024-03-11T06:44:51.544Z,98.72
2024-03-11T06:47:19.175Z,100.60
2024-03-11T06:49:46.482Z,88.57
2024-03-11T06:52:13.868Z,81.25
2024-03-11T06:54:42.291Z,95.85
2024-03-11T06:57:11.594Z,96.35
2024-03-11T06:59:39.253Z,92.10
2024-03-11T07:02:07.416Z,80.78
2024-03-11T07:04:34.715Z,109.55
2024-03-11T07:07:02.272Z,95.65
2024-03-11T07:09:30.039Z,98.82
2024-03-11T07:11:57.854Z,101.97
2024-03-11T07:14:26.089Z,100.88
2024-03-11T07:17:00.659Z,97.75
2024-03-11T07:19:31.050Z,107.53
2024-03-11T07:21:59.009Z,91.95
2024-03-11T07:24:26.291Z,96.72
2024-03-11T07:26:53.590Z,84.22
2024-03-11T07:29:23.602Z,96.05
2024-03-11T07:31:51.456Z,82.95
2024-03-11T07:34:18.806Z,90.22
2024-03-11T07:36:46.142Z,83.05
2024-03-11T07:39:13.470Z,91.93
2024-03-11T07:41:40.832Z,87.95
2024-03-11T07:44:08.295Z,77.22
2024-03-11T07:46:36.786Z,83.88
2024-03-11T07:49:04.528Z,94.53
2024-03-11T07:51:32.153Z,93.72
2024-03-11T07:53:59.444Z,97.32
2024-03-11T07:56:26.984Z,94.75
2024-03-11T07:58:56.478Z,81.05
2024-03-11T08:01:25.833Z,87.95
2024-03-11T08:03:54.264Z,81.05
2024-03-11T08:06:21.906Z,73.47
2024-03-11T08:08:54.063Z,73.75
2024-03-11T08:11:21.799Z,73.95
2024-03-11T08:13:49.118Z,81.63
2024-03-11T08:16:16.541Z,81.70
2024-03-11T08:18:43.917Z,82.65
2024-03-11T08:21:11.491Z,64.82
2024-03-11T08:23:44.685Z,71.85
2024-03-11T08:26:12.870Z,75.80
2024-03-11T08:28:41.603Z,82.50
2024-03-11T08:31:09.185Z,88.03
2024-03-11T08:33:39.915Z,88.97
2024-03-11T08:36:08.133Z,97.57
2024-03-11T08:38:37.467Z,86.40
2024-03-11T08:41:08.204Z,88.90
2024-03-11T08:43:35.600Z,80.28
2024-03-11T08:46:03.246Z,73.85
2024-03-11T08:48:31.824Z,91.55
2024-03-11T08:51:01.919Z,76.57
2024-03-11T08:53:29.390Z,75.72
2024-03-11T08:56:00.049Z,77.88
2024-03-11T08:58:27.400Z,86.57
2024-03-11T09:00:54.787Z,75.20
2024-03-11T09:03:22.608Z,90.43
2024-03-11T09:05:51.019Z,84.47
2024-03-11T09:08:19.335Z,77.75
2024-03-11T09:10:46.823Z,79.10
2024-03-11T09:13:14.269Z,74.15
2024-03-11T09:15:41.733Z,78.88
2024-03-11T09:18:11.048Z,79.60
2024-03-11T09:20:38.618Z,80.38
2024-03-11T09:23:08.604Z,84.82
2024-03-11T09:25:38.156Z,91.57
2024-03-11T09:28:09.486Z,88.95
2024-03-11T09:30:40.281Z,84.40
2024-03-11T09:33:10.428Z,86.35
2024-03-11T09:35:37.953Z,90.63
2024-03-11T09:38:05.776Z,104.53
2024-03-11T09:40:36.051Z,79.20
2024-03-11T09:43:07.625Z,92.53
2024-03-11T09:45:36.715Z,100.97
2024-03-11T09:48:06.533Z,86.68
2024-03-11T09:50:36.926Z,78.80
2024-03-11T09:53:07.984Z,91.30
2024-03-11T09:55:37.539Z,86.05
2024-03-11T09:58:07.808Z,92.50
2024-03-11T10:00:49.426Z,83.85
2024-03-11T10:03:22.676Z,92.90
2024-03-11T10:06:01.156Z,77.72
2024-03-11T10:08:32.878Z,84.68
2024-03-11T10:11:14.058Z,77.65
2024-03-11T10:13:42.091Z,81.57
2024-03-11T10:16:20.235Z,79.60
2024-03-11T10:19:13.502Z,89.75
2024-03-11T10:21:42.889Z,97.30
2024-03-11T10:24:10.880Z,77.43
2024-03-11T10:26:46.974Z,81.20
2024-03-11T10:29:31.584Z,85.00
2024-03-11T10:31:58.994Z,71.13
2024-03-11T10:34:26.474Z,92.43
2024-03-11T10:36:59.208Z,91.95
2024-03-11T10:39:38.812Z,88.38
2024-03-11T10:42:14.354Z,87.57
2024-03-11T10:44:42.066Z,85.30
2024-03-11T10:47:17.138Z,96.50
2024-03-11T10:49:51.177Z,90.43
2024-03-11T10:52:24.716Z,82.43
2024-03-11T10:57:28.836Z,89.55
2024-03-11T10:59:57.025Z,83.75
2024-03-11T11:02:28.038Z,99.38
2024-03-11T11:04:59.302Z,97.30
2024-03-11T11:07:35.848Z,89.72
2024-03-11T11:10:04.745Z,89.00
2024-03-11T11:12:32.362Z,97.38
2024-03-11T11:15:03.576Z,87.82
2024-03-11T11:17:31.968Z,100.28
2024-03-11T11:20:00.230Z,82.93
2024-03-11T11:22:28.688Z,86.68
2024-03-11T11:24:55.983Z,93.28
2024-03-11T11:27:26.697Z,89.00
2024-03-11T11:29:55.417Z,84.85
2024-03-11T11:32:31.973Z,84.65
2024-03-11T11:34:59.411Z,91.40
2024-03-11T11:37:34.892Z,77.03
2024-03-11T11:40:30.755Z,77.10
2024-03-11T11:43:00.015Z,81.03
2024-03-11T11:45:49.212Z,82.22
2024-03-11T11:48:27.216Z,71.93
2024-03-11T11:51:01.593Z,83.32
2024-03-11T11:53:34.771Z,60.15
2024-03-11T11:56:05.483Z,63.20
2024-03-11T11:58:33.980Z,80.68
2024-03-11T12:01:03.515Z,81.32
2024-03-11T12:03:34.018Z,78.78
2024-03-11T12:06:04.827Z,78.93
2024-03-11T12:08:33.822Z,78.40
2024-03-11T12:11:11.777Z,74.28
2024-03-11T12:13:43.970Z,89.05
2024-03-11T12:16:13.074Z,97.13
2024-03-11T12:18:43.399Z,77.85
2024-03-11T12:21:15.113Z,74.97
2024-03-11T12:23:43.283Z,61.85
2024-03-11T12:26:13.884Z,68.57
2024-03-11T12:29:00.603Z,74.75
2024-03-11T12:31:30.656Z,69.78
2024-03-11T12:33:58.091Z,86.20
2024-03-11T12:36:27.777Z,67.53
2024-03-11T12:38:55.148Z,64.47
2024-03-11T12:41:43.930Z,57.13
2024-03-11T12:44:15.503Z,72.55
2024-03-11T12:46:45.008Z,73.10
2024-03-11T12:49:13.428Z,72.82
2024-03-11T12:51:42.547Z,62.83
2024-03-11T12:54:20.602Z,57.20
2024-03-11T12:57:15.233Z,73.05
2024-03-11T12:59:44.682Z,62.13
2024-03-11T13:02:21.871Z,68.70
2024-03-11T13:04:51.068Z,68.32
2024-03-11T13:07:21.497Z,61.70
2024-03-11T13:09:54.594Z,80.55
2024-03-11T13:12:22.189Z,69.28
2024-03-11T13:14:51.373Z,67.07
2024-03-11T13:17:20.626Z,73.65
2024-03-11T13:19:50.034Z,72.45
2024-03-11T13:22:20.180Z,62.25
2024-03-11T13:24:57.822Z,70.53
2024-03-11T13:27:26.259Z,67.60
2024-03-11T13:29:55.610Z,77.95
2024-03-11T13:32:23.744Z,73.80
2024-03-11T13:34:51.138Z,88.00
2024-03-11T13:37:19.139Z,65.82
2024-03-11T13:39:48.166Z,70.22
2024-03-11T13:42:16.014Z,70.40
2024-03-11T13:44:43.582Z,66.57
2024-03-11T13:47:11.954Z,83.10
2024-03-11T13:49:47.635Z,65.72
2024-03-11T13:52:15.757Z,69.75
2024-03-11T13:54:43.196Z,75.50
2024-03-11T13:57:13.375Z,78.03
2024-03-11T13:59:41.599Z,61.40
2024-03-11T14:02:11.039Z,56.30
2024-03-11T14:04:38.667Z,58.95
2024-03-11T14:07:07.249Z,69.50
2024-03-11T14:09:34.800Z,63.17
2024-03-11T14:12:02.287Z,62.20
2024-03-11T14:14:29.678Z,73.93
2024-03-11T14:16:57.006Z,68.75
2024-03-11T14:19:24.339Z,63.92
2024-03-11T14:21:52.880Z,63.90
2024-03-11T14:24:20.718Z,72.57
2024-03-11T14:26:49.338Z,60.28
2024-03-11T14:29:17.219Z,77.18
2024-03-11T14:31:47.932Z,74.85
2024-03-11T14:34:18.744Z,71.10
2024-03-11T14:36:47.229Z,65.70
2024-03-11T14:39:20.739Z,74.03
2024-03-11T14:41:49.166Z,61.83
2024-03-11T14:44:16.747Z,60.88
2024-03-11T14:46:56.744Z,63.25
2024-03-11T14:49:27.913Z,72.57
2024-03-11T14:51:56.603Z,52.95
2024-03-11T14:54:28.258Z,63.78
2024-03-11T14:56:57.898Z,58.10
2024-03-11T14:59:26.106Z,64.45
2024-03-11T15:01:57.402Z,64.38
2024-03-11T15:04:28.348Z,62.88
2024-03-11T15:06:56.391Z,63.22
2024-03-11T15:09:24.256Z,65.40
2024-03-11T15:11:55.844Z,66.85
2024-03-11T15:14:23.430Z,67.43
2024-03-11T15:16:57.049Z,60.85
2024-03-11T15:19:25.500Z,56.08
2024-03-11T15:21:53.150Z,65.97
2024-03-11T15:24:22.452Z,74.65
2024-03-11T15:26:50.136Z,57.42
2024-03-11T15:29:18.322Z,60.08
2024-03-11T15:31:46.335Z,53.95
2024-03-11T15:34:16.563Z,58.65
2024-03-11T15:36:44.118Z,58.20
2024-03-11T15:39:11.527Z,45.55
2024-03-11T15:41:38.936Z,62.58
2024-03-11T15:44:06.550Z,47.83
2024-03-11T15:46:34.295Z,58.58
2024-03-11T15:49:01.759Z,62.83
2024-03-11T15:51:29.779Z,48.05
2024-03-11T15:53:57.732Z,58.10
2024-03-11T15:56:25.984Z,62.85
2024-03-11T15:58:53.593Z,58.45
2024-03-11T16:01:27.236Z,58.53
2024-03-11T16:03:58.962Z,53.15
2024-03-11T16:06:26.797Z,50.28
2024-03-11T16:08:54.735Z,49.25
2024-03-11T16:11:23.506Z,60.17
2024-03-11T16:13:53.029Z,48.25
2024-03-11T16:16:22.300Z,50.67
2024-03-11T16:18:50.557Z,49.72
2024-03-11T16:21:18.971Z,49.90
2024-03-11T16:23:47.679Z,49.90
2024-03-11T16:26:15.754Z,47.40
2024-03-11T16:28:44.081Z,45.03
2024-03-11T16:31:11.614Z,56.22
2024-03-11T16:33:39.164Z,54.92
2024-03-11T16:36:06.917Z,51.03
2024-03-11T16:38:35.868Z,59.45
2024-03-11T16:41:03.884Z,51.10
2024-03-11T16:43:31.454Z,45.38
2024-03-11T16:45:58.856Z,45.33
2024-03-11T16:48:27.100Z,53.47
2024-03-11T16:50:54.500Z,48.28
2024-03-11T16:53:24.455Z,53.58
2024-03-11T16:55:55.510Z,48.92
2024-03-11T16:58:25.444Z,45.47
2024-03-11T17:00:53.302Z,51.45
2024-03-11T17:03:21.792Z,53.55
2024-03-11T17:05:49.922Z,56.25
2024-03-11T17:08:17.511Z,49.70
2024-03-11T17:10:46.640Z,56.25
2024-03-11T17:13:20.034Z,61.47
2024-03-11T17:15:50.887Z,46.17
2024-03-11T17:18:22.680Z,48.40
2024-03-11T17:20:56.644Z,45.03
2024-03-11T17:23:28.221Z,50.07
2024-03-11T17:25:56.843Z,57.88
2024-03-11T17:28:27.848Z,49.33
2024-03-11T17:30:56.188Z,50.63
2024-03-11T17:33:24.809Z,42.83
2024-03-11T17:35:53.396Z,47.08
2024-03-11T17:38:25.463Z,59.92
2024-03-11T17:40:55.906Z,54.53
2024-03-11T17:43:25.375Z,51.47
2024-03-11T17:45:55.094Z,47.72
2024-03-11T17:48:27.834Z,61.65
2024-03-11T17:50:56.692Z,54.13
2024-03-11T17:53:24.413Z,48.03
2024-03-11T17:55:53.028Z,50.47
2024-03-11T17:58:23.076Z,60.63
2024-03-11T18:00:53.459Z,53.90
2024-03-11T18:03:21.414Z,62.25
2024-03-11T18:05:49.411Z,53.83
2024-03-11T18:08:17.140Z,56.72
2024-03-11T18:10:45.489Z,50.50
2024-03-11T18:13:16.014Z,45.50
2024-03-11T18:15:47.541Z,44.55
2024-03-11T18:18:19.427Z,47.50
2024-03-11T18:20:48.398Z,50.67
2024-03-11T18:23:17.725Z,51.83
2024-03-11T18:25:52.057Z,54.13
2024-03-11T18:28:22.015Z,55.35
2024-03-11T18:30:51.003Z,54.80
2024-03-11T18:33:19.643Z,54.33
2024-03-11T18:35:47.893Z,50.28
2024-03-11T18:38:16.954Z,49.15
2024-03-11T18:40:45.068Z,49.85
2024-03-11T18:43:16.551Z,51.78
2024-03-11T18:45:45.340Z,60.45
2024-03-11T18:48:12.979Z,56.17
2024-03-11T18:50:41.943Z,48.72
2024-03-11T18:53:11.316Z,53.67
2024-03-11T18:55:38.791Z,48.58
2024-03-11T18:58:06.398Z,47.55
2024-03-11T19:00:34.320Z,45.35
2024-03-11T19:03:02.966Z,42.00
2024-03-11T19:05:31.206Z,40.50
2024-03-11T19:08:00.083Z,49.95
2024-03-11T19:10:32.647Z,42.13
2024-03-11T19:13:00.673Z,49.33
2024-03-11T19:15:31.533Z,44.70
2024-03-11T19:17:59.836Z,53.53
2024-03-11T19:20:27.694Z,48.95
2024-03-11T19:22:58.412Z,51.15
2024-03-11T19:25:29.474Z,50.20
2024-03-11T19:27:59.582Z,42.53
2024-03-11T19:30:33.321Z,47.35
2024-03-11T19:33:03.143Z,52.20
2024-03-11T19:35:31.313Z,54.25
2024-03-11T19:38:36.220Z,41.58
2024-03-11T19:41:23.969Z,46.92
2024-03-11T19:44:16.926Z,54.00
2024-03-11T19:46:45.931Z,53.72
2024-03-11T19:49:33.888Z,51.75
2024-03-11T19:52:41.310Z,52.13
2024-03-11T19:55:28.953Z,42.53
2024-03-11T19:58:21.102Z,45.85
2024-03-11T20:01:10.284Z,51.78
2024-03-11T20:04:28.374Z,54.53
2024-03-11T20:07:06.622Z,44.75
2024-03-11T20:09:54.290Z,40.85
2024-03-11T20:12:59.133Z,42.50
2024-03-11T20:15:41.874Z,53.40
2024-03-11T20:18:51.652Z,48.67
2024-03-11T20:21:53.981Z,68.57
2024-03-11T20:24:54.365Z,58.10
2024-03-11T20:28:02.318Z,57.80
2024-03-11T20:30:41.726Z,53.55
2024-03-11T20:33:10.775Z,45.85
2024-03-11T20:35:38.874Z,49.08
2024-03-11T20:38:06.324Z,57.80
2024-03-11T20:40:35.852Z,51.30
2024-03-11T20:43:04.593Z,42.25
2024-03-11T20:45:33.446Z,59.17
2024-03-11T20:48:01.401Z,48.10
2024-03-11T20:50:31.751Z,54.55
2024-03-11T20:52:59.800Z,54.53
2024-03-11T20:55:28.105Z,65.25
2024-03-11T20:57:55.456Z,57.42
2024-03-11T21:00:22.967Z,58.00
2024-03-11T21:02:54.770Z,65.82
2024-03-11T21:05:24.134Z,54.42
2024-03-11T21:07:52.732Z,61.45
2024-03-11T21:10:20.397Z,60.83
2024-03-11T21:12:47.856Z,52.17
2024-03-11T21:15:16.619Z,59.33
2024-03-11T21:17:44.608Z,54.47
2024-03-11T21:20:25.434Z,58.60
2024-03-11T21:22:55.556Z,59.13
2024-03-11T21:25:24.290Z,58.80
2024-03-11T21:27:52.188Z,64.68
2024-03-11T21:30:19.857Z,59.85
2024-03-11T21:32:48.085Z,66.43
2024-03-11T21:35:20.665Z,52.25
2024-03-11T21:37:48.012Z,67.47
2024-03-11T21:40:15.714Z,56.47
2024-03-11T21:42:44.798Z,60.13
2024-03-11T21:45:12.269Z,61.88
2024-03-11T21:47:43.270Z,67.03
2024-03-11T21:50:12.274Z,55.40
2024-03-11T21:52:40.295Z,63.08
2024-03-11T21:55:08.349Z,62.28
2024-03-11T21:57:35.919Z,68.47
2024-03-11T22:00:03.502Z,62.80
2024-03-11T22:02:39.062Z,56.05
2024-03-11T22:05:07.865Z,60.67
2024-03-11T22:07:35.275Z,53.60
2024-03-11T22:10:03.650Z,59.75
2024-03-11T22:12:31.068Z,56.00
2024-03-11T22:15:00.815Z,63.28
2024-03-11T22:17:28.174Z,62.88
2024-03-11T22:19:55.495Z,56.53
2024-03-11T22:22:23.102Z,48.65
2024-03-11T22:24:50.486Z,61.95
2024-03-11T22:27:17.778Z,71.68
2024-03-11T22:29:45.077Z,52.63
2024-03-11T22:32:13.368Z,53.63
2024-03-11T22:34:41.512Z,75.03
2024-03-11T22:37:08.895Z,64.72
2024-03-11T22:39:36.322Z,58.33
2024-03-11T22:42:11.058Z,56.45
2024-03-11T22:44:39.449Z,63.42
2024-03-11T22:47:10.576Z,64.45
2024-03-11T22:49:38.741Z,68.18
2024-03-11T22:52:08.162Z,64.82
2024-03-11T22:54:35.647Z,56.35
2024-03-11T22:57:12.164Z,59.97
2024-03-11T22:59:40.057Z,53.50
2024-03-11T23:02:17.947Z,63.42
2024-03-11T23:04:50.621Z,61.53
2024-03-11T23:07:21.244Z,58.75
2024-03-11T23:09:49.132Z,64.93
2024-03-11T23:12:16.786Z,56.13
2024-03-11T23:14:44.594Z,58.92
2024-03-11T23:17:16.103Z,60.45
2024-03-11T23:19:49.819Z,56.25
2024-03-11T23:22:20.027Z,61.08
2024-03-11T23:24:47.774Z,51.55
2024-03-11T23:27:15.239Z,55.42
2024-03-11T23:29:43.580Z,68.85
2024-03-11T23:32:11.563Z,61.38
2024-03-11T23:34:39.934Z,69.75
2024-03-11T23:37:07.808Z,63.80
2024-03-11T23:39:35.368Z,54.67
2024-03-11T23:42:02.917Z,68.22
2024-03-11T23:44:30.794Z,64.18
2024-03-11T23:46:58.503Z,57.42
2024-03-11T23:49:25.852Z,81.70
2024-03-11T23:51:53.519Z,70.70
2024-03-11T23:54:21.181Z,68.70
2024-03-11T23:56:48.616Z,61.58
2024-03-11T23:59:16.244Z,52.20
